sensor_id;sensor_type;location;lat;lon;timestamp;P1;durP1;ratioP1;P2;durP2;ratioP2
70301;SDS011;57706;56.326;43.882;2023-06-24T00:00:08;7.60;;;5.10;;
70301;SDS011;57706;56.326;43.882;2023-06-24T00:02:38;7.45;;;4.72;;
70301;SDS011;57706;56.326;43.882;2023-06-24T00:05:04;7.43;;;4.90;;
70301;SDS011;57706;56.326;43.882;2023-06-24T00:07:32;10.90;;;5.20;;
70301;SDS011;57706;56.326;43.882;2023-06-24T00:10:01;7.20;;;5.57;;
70301;SDS011;57706;56.326;43.882;2023-06-24T00:12:34;6.50;;;5.30;;
70301;SDS011;57706;56.326;43.882;2023-06-24T00:15:00;6.00;;;5.25;;
70301;SDS011;57706;56.326;43.882;2023-06-24T00:17:26;8.70;;;5.50;;
70301;SDS011;57706;56.326;43.882;2023-06-24T00:19:53;8.20;;;5.20;;
70301;SDS011;57706;56.326;43.882;2023-06-24T00:22:20;8.55;;;5.97;;
70301;SDS011;57706;56.326;43.882;2023-06-24T00:24:47;8.25;;;6.10;;
70301;SDS011;57706;56.326;43.882;2023-06-24T00:27:13;8.20;;;5.85;;
70301;SDS011;57706;56.326;43.882;2023-06-24T00:29:39;9.20;;;6.18;;
70301;SDS011;57706;56.326;43.882;2023-06-24T00:32:05;9.23;;;6.05;;
70301;SDS011;57706;56.326;43.882;2023-06-24T00:34:31;8.73;;;6.57;;
70301;SDS011;57706;56.326;43.882;2023-06-24T00:36:57;8.23;;;4.95;;
70301;SDS011;57706;56.326;43.882;2023-06-24T00:39:23;10.93;;;5.95;;
70301;SDS011;57706;56.326;43.882;2023-06-24T00:41:49;9.52;;;6.47;;
70301;SDS011;57706;56.326;43.882;2023-06-24T00:44:15;10.25;;;6.57;;
70301;SDS011;57706;56.326;43.882;2023-06-24T00:46:41;8.02;;;6.20;;
70301;SDS011;57706;56.326;43.882;2023-06-24T00:49:09;10.15;;;6.20;;
70301;SDS011;57706;56.326;43.882;2023-06-24T00:51:39;8.38;;;6.45;;
70301;SDS011;57706;56.326;43.882;2023-06-24T00:54:05;9.32;;;6.30;;
70301;SDS011;57706;56.326;43.882;2023-06-24T00:56:33;9.15;;;6.50;;
70301;SDS011;57706;56.326;43.882;2023-06-24T00:59:04;11.02;;;6.95;;
70301;SDS011;57706;56.326;43.882;2023-06-24T01:01:33;9.95;;;7.00;;
70301;SDS011;57706;56.326;43.882;2023-06-24T01:04:01;9.95;;;7.03;;
70301;SDS011;57706;56.326;43.882;2023-06-24T01:06:29;12.85;;;6.85;;
70301;SDS011;57706;56.326;43.882;2023-06-24T01:08:57;9.60;;;6.55;;
70301;SDS011;57706;56.326;43.882;2023-06-24T01:11:26;7.70;;;6.18;;
70301;SDS011;57706;56.326;43.882;2023-06-24T01:13:53;10.45;;;6.35;;
70301;SDS011;57706;56.326;43.882;2023-06-24T01:16:42;12.85;;;6.10;;
70301;SDS011;57706;56.326;43.882;2023-06-24T01:36:33;9.32;;;6.00;;
70301;SDS011;57706;56.326;43.882;2023-06-24T01:39:02;8.52;;;6.25;;
70301;SDS011;57706;56.326;43.882;2023-06-24T01:41:32;13.18;;;6.38;;
70301;SDS011;57706;56.326;43.882;2023-06-24T01:44:08;9.60;;;6.28;;
70301;SDS011;57706;56.326;43.882;2023-06-24T01:49:07;8.70;;;6.43;;
70301;SDS011;57706;56.326;43.882;2023-06-24T01:54:04;7.15;;;6.15;;
70301;SDS011;57706;56.326;43.882;2023-06-24T01:56:35;7.20;;;5.82;;
70301;SDS011;57706;56.326;43.882;2023-06-24T01:59:04;6.88;;;5.80;;
70301;SDS011;57706;56.326;43.882;2023-06-24T02:01:31;7.97;;;6.18;;
70301;SDS011;57706;56.326;43.882;2023-06-24T02:04:00;9.40;;;6.38;;
70301;SDS011;57706;56.326;43.882;2023-06-24T02:06:28;9.23;;;6.07;;
70301;SDS011;57706;56.326;43.882;2023-06-24T02:08:57;8.55;;;6.18;;
70301;SDS011;57706;56.326;43.882;2023-06-24T02:11:24;7.13;;;5.78;;
70301;SDS011;57706;56.326;43.882;2023-06-24T02:13:54;10.35;;;6.03;;
70301;SDS011;57706;56.326;43.882;2023-06-24T02:16:21;8.07;;;6.10;;
70301;SDS011;57706;56.326;43.882;2023-06-24T02:18:49;7.00;;;6.00;;
70301;SDS011;57706;56.326;43.882;2023-06-24T02:21:17;7.20;;;5.88;;
70301;SDS011;57706;56.326;43.882;2023-06-24T02:23:45;8.00;;;6.55;;
70301;SDS011;57706;56.326;43.882;2023-06-24T02:26:13;7.88;;;6.03;;
70301;SDS011;57706;56.326;43.882;2023-06-24T02:28:41;10.23;;;6.18;;
70301;SDS011;57706;56.326;43.882;2023-06-24T02:31:09;7.05;;;6.13;;
70301;SDS011;57706;56.326;43.882;2023-06-24T02:33:37;7.60;;;6.10;;
70301;SDS011;57706;56.326;43.882;2023-06-24T02:36:04;6.72;;;5.68;;
70301;SDS011;57706;56.326;43.882;2023-06-24T02:38:30;7.30;;;6.10;;
70301;SDS011;57706;56.326;43.882;2023-06-24T02:40:55;6.93;;;6.15;;
70301;SDS011;57706;56.326;43.882;2023-06-24T02:43:22;7.88;;;6.40;;
70301;SDS011;57706;56.326;43.882;2023-06-24T02:45:47;9.02;;;6.57;;
70301;SDS011;57706;56.326;43.882;2023-06-24T02:48:15;7.20;;;5.78;;
70301;SDS011;57706;56.326;43.882;2023-06-24T02:50:44;10.18;;;6.97;;
70301;SDS011;57706;56.326;43.882;2023-06-24T02:53:12;10.43;;;6.72;;
70301;SDS011;57706;56.326;43.882;2023-06-24T02:55:40;10.00;;;6.85;;
70301;SDS011;57706;56.326;43.882;2023-06-24T02:58:07;11.85;;;7.15;;
70301;SDS011;57706;56.326;43.882;2023-06-24T03:03:31;8.65;;;6.78;;
70301;SDS011;57706;56.326;43.882;2023-06-24T03:05:57;11.38;;;7.40;;
70301;SDS011;57706;56.326;43.882;2023-06-24T03:08:28;8.60;;;7.07;;
70301;SDS011;57706;56.326;43.882;2023-06-24T03:10:56;10.13;;;7.28;;
70301;SDS011;57706;56.326;43.882;2023-06-24T03:13:24;9.70;;;8.00;;
70301;SDS011;57706;56.326;43.882;2023-06-24T03:16:03;10.40;;;7.05;;
70301;SDS011;57706;56.326;43.882;2023-06-24T03:18:33;10.88;;;7.72;;
70301;SDS011;57706;56.326;43.882;2023-06-24T03:20:59;11.57;;;7.88;;
70301;SDS011;57706;56.326;43.882;2023-06-24T03:23:28;9.65;;;7.05;;
70301;SDS011;57706;56.326;43.882;2023-06-24T03:25:54;11.75;;;7.50;;
70301;SDS011;57706;56.326;43.882;2023-06-24T03:28:21;12.20;;;7.72;;
70301;SDS011;57706;56.326;43.882;2023-06-24T03:30:54;9.93;;;7.28;;
70301;SDS011;57706;56.326;43.882;2023-06-24T03:33:20;10.07;;;7.65;;
70301;SDS011;57706;56.326;43.882;2023-06-24T03:35:46;10.20;;;7.82;;
70301;SDS011;57706;56.326;43.882;2023-06-24T03:38:16;11.02;;;7.30;;
70301;SDS011;57706;56.326;43.882;2023-06-24T03:40:42;12.20;;;7.63;;
70301;SDS011;57706;56.326;43.882;2023-06-24T03:43:09;13.30;;;7.10;;
70301;SDS011;57706;56.326;43.882;2023-06-24T03:45:36;8.85;;;7.45;;
70301;SDS011;57706;56.326;43.882;2023-06-24T03:48:02;9.38;;;7.30;;
70301;SDS011;57706;56.326;43.882;2023-06-24T03:50:30;9.10;;;7.28;;
70301;SDS011;57706;56.326;43.882;2023-06-24T03:52:56;9.50;;;6.95;;
70301;SDS011;57706;56.326;43.882;2023-06-24T03:55:22;11.00;;;7.78;;
70301;SDS011;57706;56.326;43.882;2023-06-24T03:57:48;10.82;;;7.55;;
70301;SDS011;57706;56.326;43.882;2023-06-24T04:00:13;8.70;;;7.22;;
70301;SDS011;57706;56.326;43.882;2023-06-24T04:02:46;11.25;;;7.40;;
70301;SDS011;57706;56.326;43.882;2023-06-24T04:05:12;11.82;;;8.18;;
70301;SDS011;57706;56.326;43.882;2023-06-24T04:07:38;10.23;;;7.93;;
70301;SDS011;57706;56.326;43.882;2023-06-24T04:10:05;10.98;;;8.15;;
70301;SDS011;57706;56.326;43.882;2023-06-24T04:12:34;12.32;;;8.05;;
70301;SDS011;57706;56.326;43.882;2023-06-24T04:15:01;14.98;;;8.73;;
70301;SDS011;57706;56.326;43.882;2023-06-24T04:17:32;13.30;;;8.40;;
70301;SDS011;57706;56.326;43.882;2023-06-24T04:20:00;12.32;;;8.60;;
70301;SDS011;57706;56.326;43.882;2023-06-24T04:22:26;14.23;;;8.45;;
70301;SDS011;57706;56.326;43.882;2023-06-24T04:24:56;13.18;;;7.20;;
70301;SDS011;57706;56.326;43.882;2023-06-24T04:27:23;10.00;;;7.93;;
70301;SDS011;57706;56.326;43.882;2023-06-24T04:29:50;10.55;;;7.88;;
70301;SDS011;57706;56.326;43.882;2023-06-24T04:32:16;12.63;;;8.18;;
70301;SDS011;57706;56.326;43.882;2023-06-24T04:34:42;11.60;;;8.18;;
70301;SDS011;57706;56.326;43.882;2023-06-24T04:37:09;12.40;;;7.10;;
70301;SDS011;57706;56.326;43.882;2023-06-24T04:39:35;17.60;;;8.68;;
70301;SDS011;57706;56.326;43.882;2023-06-24T04:42:01;10.02;;;7.90;;
70301;SDS011;57706;56.326;43.882;2023-06-24T04:44:27;13.25;;;7.60;;
70301;SDS011;57706;56.326;43.882;2023-06-24T04:46:53;12.07;;;8.02;;
70301;SDS011;57706;56.326;43.882;2023-06-24T04:49:19;12.85;;;8.32;;
70301;SDS011;57706;56.326;43.882;2023-06-24T04:51:45;12.40;;;8.38;;
70301;SDS011;57706;56.326;43.882;2023-06-24T04:54:11;13.50;;;8.27;;
70301;SDS011;57706;56.326;43.882;2023-06-24T04:56:39;10.35;;;7.97;;
70301;SDS011;57706;56.326;43.882;2023-06-24T04:59:06;12.35;;;8.70;;
70301;SDS011;57706;56.326;43.882;2023-06-24T05:01:32;11.52;;;7.80;;
70301;SDS011;57706;56.326;43.882;2023-06-24T05:03:58;12.60;;;8.93;;
70301;SDS011;57706;56.326;43.882;2023-06-24T05:06:24;13.15;;;8.52;;
70301;SDS011;57706;56.326;43.882;2023-06-24T05:08:51;14.55;;;8.52;;
70301;SDS011;57706;56.326;43.882;2023-06-24T05:11:17;13.07;;;8.43;;
70301;SDS011;57706;56.326;43.882;2023-06-24T05:13:43;12.75;;;7.93;;
70301;SDS011;57706;56.326;43.882;2023-06-24T05:16:09;10.85;;;8.20;;
70301;SDS011;57706;56.326;43.882;2023-06-24T05:18:35;13.43;;;8.48;;
70301;SDS011;57706;56.326;43.882;2023-06-24T05:21:01;12.02;;;8.38;;
70301;SDS011;57706;56.326;43.882;2023-06-24T05:23:27;11.45;;;8.02;;
70301;SDS011;57706;56.326;43.882;2023-06-24T05:25:53;14.52;;;8.48;;
70301;SDS011;57706;56.326;43.882;2023-06-24T05:28:19;14.32;;;8.93;;
70301;SDS011;57706;56.326;43.882;2023-06-24T05:30:45;12.32;;;8.73;;
70301;SDS011;57706;56.326;43.882;2023-06-24T05:33:11;14.57;;;8.55;;
70301;SDS011;57706;56.326;43.882;2023-06-24T05:35:37;11.77;;;7.90;;
70301;SDS011;57706;56.326;43.882;2023-06-24T05:38:07;14.82;;;8.30;;
70301;SDS011;57706;56.326;43.882;2023-06-24T05:40:33;9.07;;;7.55;;
70301;SDS011;57706;56.326;43.882;2023-06-24T05:42:59;10.05;;;7.90;;
70301;SDS011;57706;56.326;43.882;2023-06-24T05:45:26;12.80;;;7.78;;
70301;SDS011;57706;56.326;43.882;2023-06-24T05:47:52;11.20;;;7.60;;
70301;SDS011;57706;56.326;43.882;2023-06-24T05:50:18;13.00;;;7.50;;
70301;SDS011;57706;56.326;43.882;2023-06-24T05:52:44;12.95;;;7.93;;
70301;SDS011;57706;56.326;43.882;2023-06-24T05:55:10;11.98;;;7.63;;
70301;SDS011;57706;56.326;43.882;2023-06-24T05:57:35;12.85;;;7.90;;
70301;SDS011;57706;56.326;43.882;2023-06-24T06:00:02;11.32;;;7.70;;
70301;SDS011;57706;56.326;43.882;2023-06-24T06:02:38;11.35;;;7.22;;
70301;SDS011;57706;56.326;43.882;2023-06-24T06:05:04;12.38;;;8.00;;
70301;SDS011;57706;56.326;43.882;2023-06-24T06:07:30;12.38;;;7.85;;
70301;SDS011;57706;56.326;43.882;2023-06-24T06:09:56;15.30;;;8.35;;
70301;SDS011;57706;56.326;43.882;2023-06-24T06:12:22;10.30;;;7.80;;
70301;SDS011;57706;56.326;43.882;2023-06-24T06:14:48;11.65;;;8.27;;
70301;SDS011;57706;56.326;43.882;2023-06-24T06:17:14;13.93;;;8.00;;
70301;SDS011;57706;56.326;43.882;2023-06-24T06:19:40;9.40;;;7.18;;
70301;SDS011;57706;56.326;43.882;2023-06-24T06:22:07;11.10;;;6.75;;
70301;SDS011;57706;56.326;43.882;2023-06-24T06:24:33;11.75;;;7.55;;
70301;SDS011;57706;56.326;43.882;2023-06-24T06:26:59;11.35;;;7.40;;
70301;SDS011;57706;56.326;43.882;2023-06-24T06:29:25;13.65;;;7.45;;
70301;SDS011;57706;56.326;43.882;2023-06-24T06:31:51;9.57;;;7.32;;
70301;SDS011;57706;56.326;43.882;2023-06-24T06:34:18;9.52;;;7.30;;
70301;SDS011;57706;56.326;43.882;2023-06-24T06:36:45;13.00;;;8.07;;
70301;SDS011;57706;56.326;43.882;2023-06-24T06:39:11;10.93;;;6.90;;
70301;SDS011;57706;56.326;43.882;2023-06-24T06:41:36;12.13;;;8.25;;
70301;SDS011;57706;56.326;43.882;2023-06-24T06:44:03;10.90;;;7.68;;
70301;SDS011;57706;56.326;43.882;2023-06-24T06:46:29;9.82;;;7.25;;
70301;SDS011;57706;56.326;43.882;2023-06-24T06:48:55;15.40;;;7.45;;
70301;SDS011;57706;56.326;43.882;2023-06-24T06:51:21;10.65;;;7.15;;
70301;SDS011;57706;56.326;43.882;2023-06-24T06:53:49;9.95;;;7.40;;
70301;SDS011;57706;56.326;43.882;2023-06-24T06:56:33;13.02;;;8.13;;
70301;SDS011;57706;56.326;43.882;2023-06-24T06:58:59;10.27;;;7.40;;
70301;SDS011;57706;56.326;43.882;2023-06-24T07:01:25;10.55;;;7.10;;
70301;SDS011;57706;56.326;43.882;2023-06-24T07:03:51;9.15;;;7.00;;
70301;SDS011;57706;56.326;43.882;2023-06-24T07:06:20;13.63;;;7.80;;
70301;SDS011;57706;56.326;43.882;2023-06-24T07:08:46;10.38;;;7.18;;
70301;SDS011;57706;56.326;43.882;2023-06-24T07:11:12;11.57;;;7.75;;
70301;SDS011;57706;56.326;43.882;2023-06-24T07:13:38;12.75;;;7.25;;
70301;SDS011;57706;56.326;43.882;2023-06-24T07:16:04;13.13;;;7.55;;
70301;SDS011;57706;56.326;43.882;2023-06-24T07:18:30;10.98;;;7.00;;
70301;SDS011;57706;56.326;43.882;2023-06-24T07:20:56;11.75;;;6.88;;
70301;SDS011;57706;56.326;43.882;2023-06-24T07:23:22;14.57;;;8.00;;
70301;SDS011;57706;56.326;43.882;2023-06-24T07:25:48;10.98;;;8.02;;
70301;SDS011;57706;56.326;43.882;2023-06-24T07:28:14;10.82;;;6.78;;
70301;SDS011;57706;56.326;43.882;2023-06-24T07:30:40;12.88;;;8.77;;
70301;SDS011;57706;56.326;43.882;2023-06-24T07:33:07;11.63;;;7.15;;
70301;SDS011;57706;56.326;43.882;2023-06-24T07:35:33;12.30;;;7.90;;
70301;SDS011;57706;56.326;43.882;2023-06-24T07:37:59;12.00;;;7.88;;
70301;SDS011;57706;56.326;43.882;2023-06-24T07:40:26;15.02;;;8.30;;
70301;SDS011;57706;56.326;43.882;2023-06-24T07:42:52;10.70;;;7.22;;
70301;SDS011;57706;56.326;43.882;2023-06-24T07:45:19;10.95;;;7.68;;
70301;SDS011;57706;56.326;43.882;2023-06-24T07:47:45;14.02;;;8.00;;
70301;SDS011;57706;56.326;43.882;2023-06-24T07:50:11;12.43;;;7.35;;
70301;SDS011;57706;56.326;43.882;2023-06-24T07:52:37;12.88;;;7.07;;
70301;SDS011;57706;56.326;43.882;2023-06-24T07:55:03;10.18;;;6.28;;
70301;SDS011;57706;56.326;43.882;2023-06-24T07:57:30;10.55;;;6.95;;
70301;SDS011;57706;56.326;43.882;2023-06-24T07:59:56;12.02;;;6.97;;
70301;SDS011;57706;56.326;43.882;2023-06-24T08:02:22;9.48;;;6.82;;
70301;SDS011;57706;56.326;43.882;2023-06-24T08:04:49;9.23;;;6.95;;
70301;SDS011;57706;56.326;43.882;2023-06-24T08:07:16;9.55;;;6.45;;
70301;SDS011;57706;56.326;43.882;2023-06-24T08:09:42;9.90;;;6.32;;
70301;SDS011;57706;56.326;43.882;2023-06-24T08:12:08;13.68;;;7.68;;
70301;SDS011;57706;56.326;43.882;2023-06-24T08:14:34;11.55;;;6.28;;
70301;SDS011;57706;56.326;43.882;2023-06-24T08:17:00;9.38;;;6.93;;
70301;SDS011;57706;56.326;43.882;2023-06-24T08:19:27;10.15;;;6.72;;
70301;SDS011;57706;56.326;43.882;2023-06-24T08:21:54;9.88;;;6.55;;
70301;SDS011;57706;56.326;43.882;2023-06-24T08:24:20;10.43;;;7.15;;
70301;SDS011;57706;56.326;43.882;2023-06-24T08:26:46;9.70;;;6.68;;
70301;SDS011;57706;56.326;43.882;2023-06-24T08:29:12;10.15;;;7.43;;
70301;SDS011;57706;56.326;43.882;2023-06-24T08:31:37;8.32;;;6.20;;
70301;SDS011;57706;56.326;43.882;2023-06-24T08:34:03;9.23;;;6.47;;
70301;SDS011;57706;56.326;43.882;2023-06-24T08:36:31;9.18;;;6.97;;
70301;SDS011;57706;56.326;43.882;2023-06-24T08:38:57;8.80;;;6.30;;
70301;SDS011;57706;56.326;43.882;2023-06-24T08:41:23;9.50;;;6.30;;
70301;SDS011;57706;56.326;43.882;2023-06-24T08:43:55;8.35;;;6.20;;
70301;SDS011;57706;56.326;43.882;2023-06-24T08:46:22;9.50;;;6.47;;
70301;SDS011;57706;56.326;43.882;2023-06-24T08:48:53;9.27;;;6.72;;
70301;SDS011;57706;56.326;43.882;2023-06-24T08:51:24;9.77;;;6.75;;
70301;SDS011;57706;56.326;43.882;2023-06-24T08:53:55;9.55;;;6.90;;
70301;SDS011;57706;56.326;43.882;2023-06-24T08:56:22;10.65;;;6.70;;
70301;SDS011;57706;56.326;43.882;2023-06-24T08:58:48;10.20;;;6.85;;
70301;SDS011;57706;56.326;43.882;2023-06-24T09:01:14;9.70;;;6.32;;
70301;SDS011;57706;56.326;43.882;2023-06-24T09:03:40;9.63;;;7.43;;
70301;SDS011;57706;56.326;43.882;2023-06-24T09:06:06;9.27;;;6.78;;
70301;SDS011;57706;56.326;43.882;2023-06-24T09:08:32;9.35;;;6.40;;
70301;SDS011;57706;56.326;43.882;2023-06-24T09:11:00;12.88;;;6.47;;
70301;SDS011;57706;56.326;43.882;2023-06-24T09:13:36;10.63;;;6.55;;
70301;SDS011;57706;56.326;43.882;2023-06-24T09:16:12;9.15;;;6.13;;
70301;SDS011;57706;56.326;43.882;2023-06-24T09:18:39;8.25;;;6.65;;
70301;SDS011;57706;56.326;43.882;2023-06-24T09:21:05;9.02;;;5.25;;
70301;SDS011;57706;56.326;43.882;2023-06-24T09:23:35;7.32;;;5.10;;
70301;SDS011;57706;56.326;43.882;2023-06-24T09:26:03;6.50;;;5.45;;
70301;SDS011;57706;56.326;43.882;2023-06-24T09:28:29;8.27;;;6.13;;
70301;SDS011;57706;56.326;43.882;2023-06-24T09:31:07;8.82;;;6.68;;
70301;SDS011;57706;56.326;43.882;2023-06-24T09:33:35;8.18;;;5.82;;
70301;SDS011;57706;56.326;43.882;2023-06-24T09:36:02;8.63;;;5.70;;
70301;SDS011;57706;56.326;43.882;2023-06-24T09:38:32;7.55;;;5.53;;
70301;SDS011;57706;56.326;43.882;2023-06-24T09:41:02;7.35;;;5.38;;
70301;SDS011;57706;56.326;43.882;2023-06-24T09:43:35;5.80;;;5.20;;
70301;SDS011;57706;56.326;43.882;2023-06-24T09:46:02;8.80;;;5.65;;
70301;SDS011;57706;56.326;43.882;2023-06-24T09:48:30;6.10;;;5.38;;
70301;SDS011;57706;56.326;43.882;2023-06-24T09:50:57;6.80;;;5.50;;
70301;SDS011;57706;56.326;43.882;2023-06-24T09:53:33;5.10;;;4.53;;
70301;SDS011;57706;56.326;43.882;2023-06-24T09:56:00;6.07;;;5.03;;
70301;SDS011;57706;56.326;43.882;2023-06-24T09:58:29;5.80;;;4.95;;
70301;SDS011;57706;56.326;43.882;2023-06-24T10:00:57;6.18;;;5.10;;
70301;SDS011;57706;56.326;43.882;2023-06-24T10:03:27;7.32;;;6.63;;
70301;SDS011;57706;56.326;43.882;2023-06-24T10:05:55;5.88;;;4.57;;
70301;SDS011;57706;56.326;43.882;2023-06-24T10:08:21;5.93;;;4.53;;
70301;SDS011;57706;56.326;43.882;2023-06-24T10:10:47;6.38;;;4.57;;
70301;SDS011;57706;56.326;43.882;2023-06-24T10:13:13;5.28;;;4.78;;
70301;SDS011;57706;56.326;43.882;2023-06-24T10:15:39;5.47;;;4.82;;
70301;SDS011;57706;56.326;43.882;2023-06-24T10:20:56;6.50;;;4.32;;
70301;SDS011;57706;56.326;43.882;2023-06-24T10:23:22;6.25;;;5.07;;
70301;SDS011;57706;56.326;43.882;2023-06-24T10:25:48;4.63;;;4.22;;
70301;SDS011;57706;56.326;43.882;2023-06-24T10:28:13;5.40;;;4.03;;
70301;SDS011;57706;56.326;43.882;2023-06-24T10:30:39;6.57;;;4.82;;
70301;SDS011;57706;56.326;43.882;2023-06-24T10:33:19;4.60;;;4.20;;
70301;SDS011;57706;56.326;43.882;2023-06-24T10:35:45;5.53;;;4.50;;
70301;SDS011;57706;56.326;43.882;2023-06-24T10:38:11;6.93;;;3.97;;
70301;SDS011;57706;56.326;43.882;2023-06-24T10:40:37;5.35;;;4.18;;
70301;SDS011;57706;56.326;43.882;2023-06-24T10:43:49;5.88;;;4.72;;
70301;SDS011;57706;56.326;43.882;2023-06-24T10:45:50;5.03;;;4.28;;
70301;SDS011;57706;56.326;43.882;2023-06-24T10:48:17;4.82;;;4.30;;
70301;SDS011;57706;56.326;43.882;2023-06-24T10:50:46;4.95;;;4.30;;
70301;SDS011;57706;56.326;43.882;2023-06-24T10:53:13;4.78;;;4.28;;
70301;SDS011;57706;56.326;43.882;2023-06-24T10:55:39;4.80;;;4.10;;
70301;SDS011;57706;56.326;43.882;2023-06-24T10:58:12;5.30;;;4.80;;
70301;SDS011;57706;56.326;43.882;2023-06-24T11:00:39;5.10;;;4.60;;
70301;SDS011;57706;56.326;43.882;2023-06-24T11:03:09;5.07;;;4.68;;
70301;SDS011;57706;56.326;43.882;2023-06-24T11:05:40;4.18;;;3.78;;
70301;SDS011;57706;56.326;43.882;2023-06-24T11:08:06;5.75;;;4.50;;
70301;SDS011;57706;56.326;43.882;2023-06-24T11:10:33;5.18;;;4.63;;
70301;SDS011;57706;56.326;43.882;2023-06-24T11:13:04;5.38;;;4.88;;
70301;SDS011;57706;56.326;43.882;2023-06-24T11:15:32;6.85;;;4.80;;
70301;SDS011;57706;56.326;43.882;2023-06-24T11:17:58;5.07;;;4.57;;
70301;SDS011;57706;56.326;43.882;2023-06-24T11:20:27;5.50;;;4.88;;
70301;SDS011;57706;56.326;43.882;2023-06-24T11:22:53;5.80;;;5.20;;
70301;SDS011;57706;56.326;43.882;2023-06-24T11:25:20;4.80;;;4.40;;
70301;SDS011;57706;56.326;43.882;2023-06-24T11:27:50;4.68;;;4.28;;
70301;SDS011;57706;56.326;43.882;2023-06-24T11:30:18;4.47;;;4.07;;
70301;SDS011;57706;56.326;43.882;2023-06-24T11:32:44;6.10;;;3.83;;
70301;SDS011;57706;56.326;43.882;2023-06-24T11:35:11;7.03;;;4.25;;
70301;SDS011;57706;56.326;43.882;2023-06-24T11:37:43;8.77;;;4.50;;
70301;SDS011;57706;56.326;43.882;2023-06-24T11:40:10;5.78;;;4.57;;
70301;SDS011;57706;56.326;43.882;2023-06-24T11:42:39;8.73;;;5.13;;
70301;SDS011;57706;56.326;43.882;2023-06-24T11:45:09;5.00;;;4.28;;
70301;SDS011;57706;56.326;43.882;2023-06-24T11:47:37;4.13;;;3.72;;
70301;SDS011;57706;56.326;43.882;2023-06-24T11:50:04;6.70;;;4.50;;
70301;SDS011;57706;56.326;43.882;2023-06-24T11:57:49;6.75;;;4.68;;
70301;SDS011;57706;56.326;43.882;2023-06-24T12:00:15;5.68;;;4.50;;
70301;SDS011;57706;56.326;43.882;2023-06-24T12:02:42;6.80;;;4.18;;
70301;SDS011;57706;56.326;43.882;2023-06-24T12:05:08;4.95;;;3.83;;
70301;SDS011;57706;56.326;43.882;2023-06-24T12:07:34;5.35;;;3.50;;
70301;SDS011;57706;56.326;43.882;2023-06-24T12:10:00;4.30;;;3.90;;
70301;SDS011;57706;56.326;43.882;2023-06-24T12:12:26;4.68;;;3.60;;
70301;SDS011;57706;56.326;43.882;2023-06-24T12:14:51;6.30;;;3.75;;
70301;SDS011;57706;56.326;43.882;2023-06-24T12:17:17;5.93;;;3.35;;
70301;SDS011;57706;56.326;43.882;2023-06-24T12:19:43;4.88;;;3.78;;
70301;SDS011;57706;56.326;43.882;2023-06-24T12:22:09;5.20;;;3.83;;
70301;SDS011;57706;56.326;43.882;2023-06-24T12:24:35;5.53;;;3.58;;
70301;SDS011;57706;56.326;43.882;2023-06-24T12:27:01;5.13;;;3.58;;
70301;SDS011;57706;56.326;43.882;2023-06-24T12:29:27;3.42;;;2.90;;
70301;SDS011;57706;56.326;43.882;2023-06-24T12:31:53;6.03;;;3.60;;
70301;SDS011;57706;56.326;43.882;2023-06-24T12:34:19;5.43;;;3.53;;
70301;SDS011;57706;56.326;43.882;2023-06-24T12:36:46;4.93;;;3.60;;
70301;SDS011;57706;56.326;43.882;2023-06-24T12:39:12;5.32;;;3.47;;
70301;SDS011;57706;56.326;43.882;2023-06-24T12:41:38;4.28;;;3.30;;
70301;SDS011;57706;56.326;43.882;2023-06-24T12:44:03;5.18;;;3.83;;
70301;SDS011;57706;56.326;43.882;2023-06-24T12:46:29;4.15;;;3.75;;
70301;SDS011;57706;56.326;43.882;2023-06-24T12:48:55;5.80;;;3.33;;
70301;SDS011;57706;56.326;43.882;2023-06-24T12:51:21;4.65;;;3.65;;
70301;SDS011;57706;56.326;43.882;2023-06-24T12:53:47;4.05;;;3.22;;
70301;SDS011;57706;56.326;43.882;2023-06-24T12:56:13;4.40;;;3.30;;
70301;SDS011;57706;56.326;43.882;2023-06-24T12:58:39;3.58;;;3.20;;
70301;SDS011;57706;56.326;43.882;2023-06-24T13:01:05;3.38;;;2.90;;
70301;SDS011;57706;56.326;43.882;2023-06-24T13:03:31;6.25;;;3.70;;
70301;SDS011;57706;56.326;43.882;2023-06-24T13:05:57;3.83;;;3.30;;
70301;SDS011;57706;56.326;43.882;2023-06-24T13:08:23;5.65;;;3.67;;
70301;SDS011;57706;56.326;43.882;2023-06-24T13:10:49;4.18;;;3.45;;
70301;SDS011;57706;56.326;43.882;2023-06-24T13:13:15;5.93;;;3.55;;
70301;SDS011;57706;56.326;43.882;2023-06-24T13:15:40;3.97;;;3.40;;
70301;SDS011;57706;56.326;43.882;2023-06-24T13:18:06;5.55;;;3.95;;
70301;SDS011;57706;56.326;43.882;2023-06-24T13:20:32;5.80;;;3.55;;
70301;SDS011;57706;56.326;43.882;2023-06-24T13:22:58;5.03;;;3.55;;
70301;SDS011;57706;56.326;43.882;2023-06-24T13:25:24;8.82;;;5.43;;
70301;SDS011;57706;56.326;43.882;2023-06-24T13:27:50;5.68;;;3.85;;
70301;SDS011;57706;56.326;43.882;2023-06-24T13:30:16;4.40;;;3.28;;
70301;SDS011;57706;56.326;43.882;2023-06-24T13:32:42;4.30;;;3.08;;
70301;SDS011;57706;56.326;43.882;2023-06-24T13:35:08;6.93;;;3.30;;
70301;SDS011;57706;56.326;43.882;2023-06-24T13:37:34;3.80;;;3.25;;
70301;SDS011;57706;56.326;43.882;2023-06-24T13:40:00;3.75;;;3.45;;
70301;SDS011;57706;56.326;43.882;2023-06-24T13:42:26;6.70;;;3.35;;
70301;SDS011;57706;56.326;43.882;2023-06-24T13:44:52;5.63;;;3.00;;
70301;SDS011;57706;56.326;43.882;2023-06-24T13:47:18;5.78;;;3.10;;
70301;SDS011;57706;56.326;43.882;2023-06-24T13:49:44;7.05;;;3.50;;
70301;SDS011;57706;56.326;43.882;2023-06-24T13:52:09;9.25;;;6.22;;
70301;SDS011;57706;56.326;43.882;2023-06-24T13:54:35;4.38;;;3.92;;
70301;SDS011;57706;56.326;43.882;2023-06-24T13:57:01;4.25;;;3.33;;
70301;SDS011;57706;56.326;43.882;2023-06-24T13:59:27;4.45;;;3.30;;
70301;SDS011;57706;56.326;43.882;2023-06-24T14:01:53;3.85;;;3.40;;
70301;SDS011;57706;56.326;43.882;2023-06-24T14:04:19;4.32;;;3.38;;
70301;SDS011;57706;56.326;43.882;2023-06-24T14:06:45;3.60;;;3.20;;
70301;SDS011;57706;56.326;43.882;2023-06-24T14:09:12;3.45;;;3.13;;
70301;SDS011;57706;56.326;43.882;2023-06-24T14:11:38;5.13;;;3.30;;
70301;SDS011;57706;56.326;43.882;2023-06-24T14:14:04;3.83;;;3.42;;
70301;SDS011;57706;56.326;43.882;2023-06-24T14:16:30;3.40;;;3.10;;
70301;SDS011;57706;56.326;43.882;2023-06-24T14:18:55;4.40;;;3.22;;
70301;SDS011;57706;56.326;43.882;2023-06-24T14:21:21;3.22;;;2.78;;
70301;SDS011;57706;56.326;43.882;2023-06-24T14:23:47;3.40;;;3.08;;
70301;SDS011;57706;56.326;43.882;2023-06-24T14:26:13;3.30;;;2.75;;
70301;SDS011;57706;56.326;43.882;2023-06-24T14:28:42;4.50;;;3.17;;
70301;SDS011;57706;56.326;43.882;2023-06-24T14:31:07;3.90;;;3.13;;
70301;SDS011;57706;56.326;43.882;2023-06-24T14:33:33;3.20;;;2.90;;
70301;SDS011;57706;56.326;43.882;2023-06-24T14:35:59;4.30;;;2.90;;
70301;SDS011;57706;56.326;43.882;2023-06-24T14:38:25;3.38;;;3.08;;
70301;SDS011;57706;56.326;43.882;2023-06-24T14:40:51;5.78;;;3.08;;
70301;SDS011;57706;56.326;43.882;2023-06-24T14:43:17;4.72;;;3.17;;
70301;SDS011;57706;56.326;43.882;2023-06-24T14:45:44;3.58;;;3.13;;
70301;SDS011;57706;56.326;43.882;2023-06-24T14:48:10;5.85;;;2.90;;
70301;SDS011;57706;56.326;43.882;2023-06-24T14:50:36;3.80;;;3.17;;
70301;SDS011;57706;56.326;43.882;2023-06-24T14:53:02;3.00;;;2.75;;
70301;SDS011;57706;56.326;43.882;2023-06-24T14:55:29;4.90;;;3.10;;
70301;SDS011;57706;56.326;43.882;2023-06-24T14:57:55;3.78;;;2.97;;
70301;SDS011;57706;56.326;43.882;2023-06-24T15:00:21;3.33;;;2.45;;
70301;SDS011;57706;56.326;43.882;2023-06-24T15:02:47;3.33;;;2.85;;